TAF and METAR

Could not understand the following METAR

NCMR 251300Z AUTO 04006KT //// ////// 23/21 Q1012
No TAF available for Mitiaro Island Airport